sensor_id;sensor_type;location;lat;lon;timestamp;pressure;altitude;pressure_sealevel;temperature;humidity
24610;BME280;12758;47.890;11.694;2023-05-14T00:01:52;93744.53;;;12.08;100.00
24610;BME280;12758;47.890;11.694;2023-05-14T00:04:19;93742.91;;;12.20;100.00
24610;BME280;12758;47.890;11.694;2023-05-14T00:06:45;93754.63;;;12.20;100.00
24610;BME280;12758;47.890;11.694;2023-05-14T00:09:11;93739.75;;;12.18;100.00
24610;BME280;12758;47.890;11.694;2023-05-14T00:11:37;93741.34;;;12.06;100.00
24610;BME280;12758;47.890;11.694;2023-05-14T00:14:04;93739.75;;;12.18;100.00
24610;BME280;12758;47.890;11.694;2023-05-14T00:16:30;93740.44;;;12.15;100.00
24610;BME280;12758;47.890;11.694;2023-05-14T00:18:56;93733.41;;;12.14;100.00
24610;BME280;12758;47.890;11.694;2023-05-14T00:21:22;93730.00;;;12.04;100.00
24610;BME280;12758;47.890;11.694;2023-05-14T00:23:48;93723.78;;;12.04;100.00
24610;BME280;12758;47.890;11.694;2023-05-14T00:26:14;93722.28;;;12.06;100.00
24610;BME280;12758;47.890;11.694;2023-05-14T00:28:40;93714.03;;;12.15;100.00
24610;BME280;12758;47.890;11.694;2023-05-14T00:31:06;93717.97;;;11.93;100.00
24610;BME280;12758;47.890;11.694;2023-05-14T00:33:32;93718.50;;;11.74;100.00
24610;BME280;12758;47.890;11.694;2023-05-14T00:35:58;93712.16;;;11.70;100.00
24610;BME280;12758;47.890;11.694;2023-05-14T00:38:25;93711.28;;;11.33;100.00
24610;BME280;12758;47.890;11.694;2023-05-14T00:40:52;93713.47;;;11.39;100.00
24610;BME280;12758;47.890;11.694;2023-05-14T00:43:19;93711.00;;;11.47;100.00
24610;BME280;12758;47.890;11.694;2023-05-14T00:45:45;93717.22;;;11.47;100.00
24610;BME280;12758;47.890;11.694;2023-05-14T00:48:12;93713.81;;;11.38;100.00
24610;BME280;12758;47.890;11.694;2023-05-14T00:50:38;93723.16;;;11.74;100.00
24610;BME280;12758;47.890;11.694;2023-05-14T00:53:04;93709.00;;;11.80;100.00
24610;BME280;12758;47.890;11.694;2023-05-14T00:55:35;93711.66;;;11.89;100.00
24610;BME280;12758;47.890;11.694;2023-05-14T00:58:03;93709.25;;;12.00;100.00
24610;BME280;12758;47.890;11.694;2023-05-14T01:00:29;93714.59;;;12.08;100.00
24610;BME280;12758;47.890;11.694;2023-05-14T01:02:55;93709.63;;;12.10;100.00
24610;BME280;12758;47.890;11.694;2023-05-14T01:05:21;93698.28;;;12.08;100.00
24610;BME280;12758;47.890;11.694;2023-05-14T01:07:54;93705.63;;;12.08;100.00
24610;BME280;12758;47.890;11.694;2023-05-14T01:10:26;93701.44;;;12.10;100.00
24610;BME280;12758;47.890;11.694;2023-05-14T01:12:57;93696.91;;;12.15;100.00
24610;BME280;12758;47.890;11.694;2023-05-14T01:15:27;93693.94;;;11.83;100.00
24610;BME280;12758;47.890;11.694;2023-05-14T01:17:57;93696.59;;;11.34;100.00
24610;BME280;12758;47.890;11.694;2023-05-14T01:20:25;93693.88;;;11.34;100.00
24610;BME280;12758;47.890;11.694;2023-05-14T01:22:51;93698.44;;;11.54;100.00
24610;BME280;12758;47.890;11.694;2023-05-14T01:25:18;93697.09;;;11.73;100.00
24610;BME280;12758;47.890;11.694;2023-05-14T01:27:48;93693.25;;;11.74;100.00
24610;BME280;12758;47.890;11.694;2023-05-14T01:30:20;93695.16;;;11.61;100.00
24610;BME280;12758;47.890;11.694;2023-05-14T01:32:47;93700.06;;;11.80;100.00
24610;BME280;12758;47.890;11.694;2023-05-14T01:35:15;93695.13;;;11.94;100.00
24610;BME280;12758;47.890;11.694;2023-05-14T01:37:42;93694.97;;;11.78;100.00
24610;BME280;12758;47.890;11.694;2023-05-14T01:40:09;93690.69;;;11.89;100.00
24610;BME280;12758;47.890;11.694;2023-05-14T01:42:36;93686.50;;;12.04;100.00
24610;BME280;12758;47.890;11.694;2023-05-14T01:45:03;93675.72;;;12.08;100.00
24610;BME280;12758;47.890;11.694;2023-05-14T01:47:30;93678.75;;;12.06;100.00
24610;BME280;12758;47.890;11.694;2023-05-14T01:49:55;93675.38;;;11.97;100.00
24610;BME280;12758;47.890;11.694;2023-05-14T01:52:21;93676.06;;;11.94;100.00
24610;BME280;12758;47.890;11.694;2023-05-14T01:54:47;93669.03;;;11.93;100.00
24610;BME280;12758;47.890;11.694;2023-05-14T01:57:14;93669.03;;;11.93;100.00
24610;BME280;12758;47.890;11.694;2023-05-14T01:59:40;93672.22;;;11.95;100.00
24610;BME280;12758;47.890;11.694;2023-05-14T02:02:06;93673.56;;;11.89;100.00
24610;BME280;12758;47.890;11.694;2023-05-14T02:04:32;93665.06;;;11.91;100.00
24610;BME280;12758;47.890;11.694;2023-05-14T02:06:58;93669.03;;;12.05;100.00
24610;BME280;12758;47.890;11.694;2023-05-14T02:09:24;93668.34;;;12.08;100.00
24610;BME280;12758;47.890;11.694;2023-05-14T02:11:50;93672.63;;;12.09;100.00
24610;BME280;12758;47.890;11.694;2023-05-14T02:14:17;93660.75;;;12.02;100.00
24610;BME280;12758;47.890;11.694;2023-05-14T02:16:43;93663.13;;;12.03;100.00
24610;BME280;12758;47.890;11.694;2023-05-14T02:19:09;93662.13;;;11.96;100.00
24610;BME280;12758;47.890;11.694;2023-05-14T02:21:35;93664.63;;;12.01;100.00
24610;BME280;12758;47.890;11.694;2023-05-14T02:24:01;93656.22;;;11.94;100.00
24610;BME280;12758;47.890;11.694;2023-05-14T02:26:27;93665.72;;;11.75;100.00
24610;BME280;12758;47.890;11.694;2023-05-14T02:28:53;93664.25;;;11.65;100.00
24610;BME280;12758;47.890;11.694;2023-05-14T02:31:20;93662.41;;;11.45;100.00
24610;BME280;12758;47.890;11.694;2023-05-14T02:33:46;93661.28;;;11.34;100.00
24610;BME280;12758;47.890;11.694;2023-05-14T02:36:12;93664.88;;;11.26;100.00
24610;BME280;12758;47.890;11.694;2023-05-14T02:38:38;93656.66;;;10.89;100.00
24610;BME280;12758;47.890;11.694;2023-05-14T02:41:04;93660.69;;;10.83;100.00
24610;BME280;12758;47.890;11.694;2023-05-14T02:43:30;93659.44;;;11.26;100.00
24610;BME280;12758;47.890;11.694;2023-05-14T02:45:56;93647.47;;;11.51;100.00
24610;BME280;12758;47.890;11.694;2023-05-14T02:48:22;93653.38;;;11.65;100.00
24610;BME280;12758;47.890;11.694;2023-05-14T02:50:49;93653.59;;;11.73;100.00
24610;BME280;12758;47.890;11.694;2023-05-14T02:53:15;93651.78;;;11.64;100.00
24610;BME280;12758;47.890;11.694;2023-05-14T02:55:41;93651.44;;;11.54;100.00
24610;BME280;12758;47.890;11.694;2023-05-14T02:58:07;93647.25;;;11.56;100.00
24610;BME280;12758;47.890;11.694;2023-05-14T03:00:34;93642.25;;;11.58;100.00
24610;BME280;12758;47.890;11.694;2023-05-14T03:03:00;93657.00;;;11.70;100.00
24610;BME280;12758;47.890;11.694;2023-05-14T03:05:27;93648.75;;;11.91;100.00
24610;BME280;12758;47.890;11.694;2023-05-14T03:07:53;93648.63;;;11.99;100.00
24610;BME280;12758;47.890;11.694;2023-05-14T03:10:19;93648.31;;;12.01;100.00
24610;BME280;12758;47.890;11.694;2023-05-14T03:12:45;93642.72;;;11.97;100.00
24610;BME280;12758;47.890;11.694;2023-05-14T03:15:11;93640.03;;;11.85;100.00
24610;BME280;12758;47.890;11.694;2023-05-14T03:17:37;93640.56;;;11.54;100.00
24610;BME280;12758;47.890;11.694;2023-05-14T03:20:04;93638.66;;;11.66;100.00
24610;BME280;12758;47.890;11.694;2023-05-14T03:22:31;93643.84;;;11.47;100.00
24610;BME280;12758;47.890;11.694;2023-05-14T03:24:57;93635.47;;;11.40;100.00
24610;BME280;12758;47.890;11.694;2023-05-14T03:27:23;93636.38;;;11.44;100.00
24610;BME280;12758;47.890;11.694;2023-05-14T03:29:49;93635.69;;;11.47;100.00
24610;BME280;12758;47.890;11.694;2023-05-14T03:32:16;93634.34;;;11.41;100.00
24610;BME280;12758;47.890;11.694;2023-05-14T03:34:42;93635.47;;;11.40;100.00
24610;BME280;12758;47.890;11.694;2023-05-14T03:37:09;93634.91;;;11.47;100.00
24610;BME280;12758;47.890;11.694;2023-05-14T03:39:35;93633.19;;;11.42;100.00
24610;BME280;12758;47.890;11.694;2023-05-14T03:42:02;93634.78;;;11.43;100.00
24610;BME280;12758;47.890;11.694;2023-05-14T03:44:28;93625.28;;;11.37;100.00
24610;BME280;12758;47.890;11.694;2023-05-14T03:46:54;93628.69;;;11.46;100.00
24610;BME280;12758;47.890;11.694;2023-05-14T03:49:20;93638.88;;;11.61;100.00
24610;BME280;12758;47.890;11.694;2023-05-14T03:51:46;93633.53;;;11.65;100.00
24610;BME280;12758;47.890;11.694;2023-05-14T03:54:12;93635.34;;;11.61;100.00
24610;BME280;12758;47.890;11.694;2023-05-14T03:56:39;93629.56;;;11.38;100.00
24610;BME280;12758;47.890;11.694;2023-05-14T03:59:05;93628.75;;;11.25;100.00
24610;BME280;12758;47.890;11.694;2023-05-14T04:01:31;93642.19;;;11.09;100.00
24610;BME280;12758;47.890;11.694;2023-05-14T04:03:57;93628.97;;;11.08;100.00
24610;BME280;12758;47.890;11.694;2023-05-14T04:06:23;93632.91;;;10.98;100.00
24610;BME280;12758;47.890;11.694;2023-05-14T04:08:49;93631.78;;;10.99;100.00
24610;BME280;12758;47.890;11.694;2023-05-14T04:11:15;93629.97;;;11.03;100.00
24610;BME280;12758;47.890;11.694;2023-05-14T04:13:41;93625.88;;;10.97;100.00
24610;BME280;12758;47.890;11.694;2023-05-14T04:16:07;93625.84;;;10.85;100.00
24610;BME280;12758;47.890;11.694;2023-05-14T04:18:33;93628.53;;;10.72;100.00
24610;BME280;12758;47.890;11.694;2023-05-14T04:20:59;93632.75;;;10.82;100.00
24610;BME280;12758;47.890;11.694;2023-05-14T04:23:25;93628.16;;;11.07;100.00
24610;BME280;12758;47.890;11.694;2023-05-14T04:25:51;93631.81;;;11.11;100.00
24610;BME280;12758;47.890;11.694;2023-05-14T04:28:17;93630.31;;;11.02;100.00
24610;BME280;12758;47.890;11.694;2023-05-14T04:30:44;93635.13;;;10.84;100.00
24610;BME280;12758;47.890;11.694;2023-05-14T04:33:10;93623.50;;;10.62;100.00
24610;BME280;12758;47.890;11.694;2023-05-14T04:35:36;93631.13;;;10.06;100.00
24610;BME280;12758;47.890;11.694;2023-05-14T04:38:02;93630.44;;;10.39;100.00
24610;BME280;12758;47.890;11.694;2023-05-14T04:40:28;93632.47;;;10.75;100.00
24610;BME280;12758;47.890;11.694;2023-05-14T04:42:55;93628.59;;;10.97;100.00
24610;BME280;12758;47.890;11.694;2023-05-14T04:45:21;93636.63;;;10.93;100.00
24610;BME280;12758;47.890;11.694;2023-05-14T04:47:48;93636.19;;;11.04;100.00
24610;BME280;12758;47.890;11.694;2023-05-14T04:50:14;93638.94;;;11.16;100.00
24610;BME280;12758;47.890;11.694;2023-05-14T04:52:40;93642.31;;;11.13;100.00
24610;BME280;12758;47.890;11.694;2023-05-14T04:55:07;93643.38;;;11.21;100.00
24610;BME280;12758;47.890;11.694;2023-05-14T04:57:33;93646.53;;;11.23;100.00
24610;BME280;12758;47.890;11.694;2023-05-14T04:59:59;93644.28;;;11.25;100.00
24610;BME280;12758;47.890;11.694;2023-05-14T05:02:25;93651.28;;;11.26;100.00
24610;BME280;12758;47.890;11.694;2023-05-14T05:04:52;93650.97;;;11.27;100.00
24610;BME280;12758;47.890;11.694;2023-05-14T05:07:18;93649.03;;;11.28;100.00
24610;BME280;12758;47.890;11.694;2023-05-14T05:09:44;93649.94;;;11.32;100.00
24610;BME280;12758;47.890;11.694;2023-05-14T05:12:10;93646.75;;;11.30;100.00
24610;BME280;12758;47.890;11.694;2023-05-14T05:14:36;93647.44;;;11.27;100.00
24610;BME280;12758;47.890;11.694;2023-05-14T05:17:02;93657.19;;;11.28;100.00
24610;BME280;12758;47.890;11.694;2023-05-14T05:19:29;93656.72;;;11.26;100.00
24610;BME280;12758;47.890;11.694;2023-05-14T05:21:55;93648.91;;;11.24;100.00
24610;BME280;12758;47.890;11.694;2023-05-14T05:24:21;93654.69;;;11.23;100.00
24610;BME280;12758;47.890;11.694;2023-05-14T05:26:47;93652.44;;;11.25;100.00
24610;BME280;12758;47.890;11.694;2023-05-14T05:29:14;93639.75;;;11.29;100.00
24610;BME280;12758;47.890;11.694;2023-05-14T05:31:40;93641.22;;;11.26;100.00
24610;BME280;12758;47.890;11.694;2023-05-14T05:34:06;93652.44;;;11.25;100.00
24610;BME280;12758;47.890;11.694;2023-05-14T05:36:32;93650.59;;;11.16;100.00
24610;BME280;12758;47.890;11.694;2023-05-14T05:38:59;93653.31;;;11.16;100.00
24610;BME280;12758;47.890;11.694;2023-05-14T05:41:25;93651.06;;;11.18;100.00
24610;BME280;12758;47.890;11.694;2023-05-14T05:43:51;93644.59;;;11.23;100.00
24610;BME280;12758;47.890;11.694;2023-05-14T05:46:17;93649.72;;;11.25;100.00
24610;BME280;12758;47.890;11.694;2023-05-14T05:48:43;93641.47;;;11.33;100.00
24610;BME280;12758;47.890;11.694;2023-05-14T05:51:09;93643.50;;;11.24;100.00
24610;BME280;12758;47.890;11.694;2023-05-14T05:53:36;93641.88;;;10.78;100.00
24610;BME280;12758;47.890;11.694;2023-05-14T05:56:02;93644.81;;;10.72;100.00
24610;BME280;12758;47.890;11.694;2023-05-14T05:58:28;93649.88;;;11.07;100.00
24610;BME280;12758;47.890;11.694;2023-05-14T06:00:54;93639.28;;;11.14;100.00
24610;BME280;12758;47.890;11.694;2023-05-14T06:03:22;93644.03;;;11.17;100.00
24610;BME280;12758;47.890;11.694;2023-05-14T06:05:48;93654.25;;;11.21;100.00
24610;BME280;12758;47.890;11.694;2023-05-14T06:08:14;93651.97;;;11.23;100.00
24610;BME280;12758;47.890;11.694;2023-05-14T06:10:40;93650.03;;;11.23;100.00
24610;BME280;12758;47.890;11.694;2023-05-14T06:13:07;93650.38;;;11.22;100.00
24610;BME280;12758;47.890;11.694;2023-05-14T06:15:33;93655.03;;;11.21;100.00
24610;BME280;12758;47.890;11.694;2023-05-14T06:17:59;93662.38;;;11.21;100.00
24610;BME280;12758;47.890;11.694;2023-05-14T06:20:25;93650.38;;;11.22;100.00
24610;BME280;12758;47.890;11.694;2023-05-14T06:22:51;93658.19;;;11.23;100.00
24610;BME280;12758;47.890;11.694;2023-05-14T06:25:17;93658.31;;;11.27;100.00
24610;BME280;12758;47.890;11.694;2023-05-14T06:27:43;93658.31;;;11.27;100.00
24610;BME280;12758;47.890;11.694;2023-05-14T06:30:11;93658.66;;;11.25;100.00
24610;BME280;12758;47.890;11.694;2023-05-14T06:32:37;93650.72;;;11.32;100.00
24610;BME280;12758;47.890;11.694;2023-05-14T06:35:03;93645.19;;;11.29;100.00
24610;BME280;12758;47.890;11.694;2023-05-14T06:37:29;93652.53;;;11.28;100.00
24610;BME280;12758;47.890;11.694;2023-05-14T06:39:55;93645.66;;;11.31;100.00
24610;BME280;12758;47.890;11.694;2023-05-14T06:42:21;93636.56;;;11.27;100.00
24610;BME280;12758;47.890;11.694;2023-05-14T06:44:47;93639.94;;;10.66;100.00
24610;BME280;12758;47.890;11.694;2023-05-14T06:47:14;93638.78;;;10.34;100.00
24610;BME280;12758;47.890;11.694;2023-05-14T06:49:40;93642.31;;;10.25;100.00
24610;BME280;12758;47.890;11.694;2023-05-14T06:52:06;93634.63;;;10.69;100.00
24610;BME280;12758;47.890;11.694;2023-05-14T06:54:32;93638.53;;;10.93;100.00
24610;BME280;12758;47.890;11.694;2023-05-14T06:56:58;93626.56;;;11.06;100.00
24610;BME280;12758;47.890;11.694;2023-05-14T06:59:24;93628.41;;;11.14;100.00
24610;BME280;12758;47.890;11.694;2023-05-14T07:01:50;93625.72;;;10.81;100.00
24610;BME280;12758;47.890;11.694;2023-05-14T07:04:17;93627.81;;;10.96;100.00
24610;BME280;12758;47.890;11.694;2023-05-14T07:06:43;93629.88;;;11.12;100.00
24610;BME280;12758;47.890;11.694;2023-05-14T07:09:09;93626.41;;;11.24;100.00
24610;BME280;12758;47.890;11.694;2023-05-14T07:11:35;93624.13;;;11.26;100.00
24610;BME280;12758;47.890;11.694;2023-05-14T07:14:01;93615.28;;;11.29;100.00
24610;BME280;12758;47.890;11.694;2023-05-14T07:16:27;93611.94;;;10.86;100.00
24610;BME280;12758;47.890;11.694;2023-05-14T07:18:53;93609.81;;;10.92;100.00
24610;BME280;12758;47.890;11.694;2023-05-14T07:21:20;93612.91;;;10.69;100.00
24610;BME280;12758;47.890;11.694;2023-05-14T07:23:46;93613.06;;;10.52;100.00
24610;BME280;12758;47.890;11.694;2023-05-14T07:26:12;93612.50;;;10.80;100.00
24610;BME280;12758;47.890;11.694;2023-05-14T07:28:38;93607.81;;;11.01;100.00
24610;BME280;12758;47.890;11.694;2023-05-14T07:31:04;93605.19;;;11.05;100.00
24610;BME280;12758;47.890;11.694;2023-05-14T07:33:33;93601.47;;;11.09;100.00
24610;BME280;12758;47.890;11.694;2023-05-14T07:35:59;93608.50;;;11.23;100.00
24610;BME280;12758;47.890;11.694;2023-05-14T07:38:25;93604.44;;;11.29;100.00
24610;BME280;12758;47.890;11.694;2023-05-14T07:40:51;93612.56;;;11.29;100.00
24610;BME280;12758;47.890;11.694;2023-05-14T07:43:17;93609.66;;;11.34;100.00
24610;BME280;12758;47.890;11.694;2023-05-14T07:45:43;93618.25;;;11.36;100.00
24610;BME280;12758;47.890;11.694;2023-05-14T07:48:10;93613.47;;;11.33;100.00
24610;BME280;12758;47.890;11.694;2023-05-14T07:50:36;93613.63;;;11.36;100.00
24610;BME280;12758;47.890;11.694;2023-05-14T07:53:02;93615.19;;;11.37;100.00
24610;BME280;12758;47.890;11.694;2023-05-14T07:55:28;93618.25;;;11.36;100.00
24610;BME280;12758;47.890;11.694;2023-05-14T07:57:54;93617.34;;;11.32;100.00
24610;BME280;12758;47.890;11.694;2023-05-14T08:00:20;93616.66;;;11.35;100.00
24610;BME280;12758;47.890;11.694;2023-05-14T08:02:46;93618.25;;;11.36;100.00
24610;BME280;12758;47.890;11.694;2023-05-14T08:05:13;93622.78;;;11.32;100.00
24610;BME280;12758;47.890;11.694;2023-05-14T08:07:39;93617.34;;;11.32;100.00
24610;BME280;12758;47.890;11.694;2023-05-14T08:10:06;93615.31;;;11.41;100.00
24610;BME280;12758;47.890;11.694;2023-05-14T08:12:33;93614.41;;;11.37;100.00
24610;BME280;12758;47.890;11.694;2023-05-14T08:14:59;93611.22;;;11.35;100.00
24610;BME280;12758;47.890;11.694;2023-05-14T08:17:25;93610.31;;;11.31;100.00
24610;BME280;12758;47.890;11.694;2023-05-14T08:19:51;93610.75;;;11.33;100.00
24610;BME280;12758;47.890;11.694;2023-05-14T08:22:18;93607.84;;;11.38;100.00
24610;BME280;12758;47.890;11.694;2023-05-14T08:24:44;93611.91;;;11.32;100.00
24610;BME280;12758;47.890;11.694;2023-05-14T08:27:10;93601.03;;;11.32;100.00
24610;BME280;12758;47.890;11.694;2023-05-14T08:29:36;93607.59;;;11.31;100.00
24610;BME280;12758;47.890;11.694;2023-05-14T08:32:03;93613.47;;;11.33;100.00
24610;BME280;12758;47.890;11.694;2023-05-14T08:34:29;93601.03;;;11.32;100.00
24610;BME280;12758;47.890;11.694;2023-05-14T08:36:55;93596.50;;;11.36;100.00
24610;BME280;12758;47.890;11.694;2023-05-14T08:39:21;93593.53;;;11.16;100.00
24610;BME280;12758;47.890;11.694;2023-05-14T08:41:47;93586.97;;;11.30;100.00
24610;BME280;12758;47.890;11.694;2023-05-14T08:44:17;93595.13;;;11.30;100.00
24610;BME280;12758;47.890;11.694;2023-05-14T08:46:44;93595.28;;;11.33;100.00
24610;BME280;12758;47.890;11.694;2023-05-14T08:49:14;93590.16;;;11.32;100.00
24610;BME280;12758;47.890;11.694;2023-05-14T08:51:42;93597.19;;;11.33;100.00
24610;BME280;12758;47.890;11.694;2023-05-14T08:54:08;93595.16;;;11.17;100.00
24610;BME280;12758;47.890;11.694;2023-05-14T08:56:35;93593.09;;;11.27;100.00
24610;BME280;12758;47.890;11.694;2023-05-14T08:59:01;93590.72;;;11.25;100.00
24610;BME280;12758;47.890;11.694;2023-05-14T09:01:27;93589.25;;;11.28;100.00
24610;BME280;12758;47.890;11.694;2023-05-14T09:03:54;93590.06;;;11.28;100.00
24610;BME280;12758;47.890;11.694;2023-05-14T09:06:21;93592.66;;;11.25;100.00
24610;BME280;12758;47.890;11.694;2023-05-14T09:08:47;93595.38;;;11.25;100.00
24610;BME280;12758;47.890;11.694;2023-05-14T09:11:13;93598.41;;;11.23;100.00
24610;BME280;12758;47.890;11.694;2023-05-14T09:13:39;93596.94;;;11.26;100.00
24610;BME280;12758;47.890;11.694;2023-05-14T09:16:06;93593.81;;;11.24;100.00
24610;BME280;12758;47.890;11.694;2023-05-14T09:18:34;93594.69;;;11.28;100.00
24610;BME280;12758;47.890;11.694;2023-05-14T09:21:00;93601.03;;;11.32;100.00
24610;BME280;12758;47.890;11.694;2023-05-14T09:23:30;93592.41;;;11.30;100.00
24610;BME280;12758;47.890;11.694;2023-05-14T09:25:56;93593.09;;;11.27;100.00
24610;BME280;12758;47.890;11.694;2023-05-14T09:28:22;93599.00;;;11.29;100.00
24610;BME280;12758;47.890;11.694;2023-05-14T09:30:49;93593.91;;;11.27;100.00
24610;BME280;12758;47.890;11.694;2023-05-14T09:33:24;93592.41;;;11.30;100.00
24610;BME280;12758;47.890;11.694;2023-05-14T09:35:51;93596.28;;;11.29;100.00
24610;BME280;12758;47.890;11.694;2023-05-14T09:38:17;93595.81;;;11.27;100.00
24610;BME280;12758;47.890;11.694;2023-05-14T09:40:43;93595.38;;;11.25;100.00
24610;BME280;12758;47.890;11.694;2023-05-14T09:43:10;93594.47;;;11.21;100.00
24610;BME280;12758;47.890;11.694;2023-05-14T09:45:36;93595.94;;;11.18;100.00
24610;BME280;12758;47.890;11.694;2023-05-14T09:48:02;93594.31;;;11.17;100.00
24610;BME280;12758;47.890;11.694;2023-05-14T09:50:28;93597.88;;;11.17;100.00
24610;BME280;12758;47.890;11.694;2023-05-14T09:52:54;93597.97;;;11.21;100.00
24610;BME280;12758;47.890;11.694;2023-05-14T09:55:21;93596.50;;;11.11;100.00
24610;BME280;12758;47.890;11.694;2023-05-14T09:57:47;93600.59;;;11.17;100.00
24610;BME280;12758;47.890;11.694;2023-05-14T10:00:14;93597.63;;;11.23;100.00
24610;BME280;12758;47.890;11.694;2023-05-14T10:02:40;93595.38;;;11.25;100.00
24610;BME280;12758;47.890;11.694;2023-05-14T10:05:08;93602.84;;;11.28;100.00
24610;BME280;12758;47.890;11.694;2023-05-14T10:07:37;93598.78;;;11.34;100.00
24610;BME280;12758;47.890;11.694;2023-05-14T10:10:06;93597.19;;;11.33;100.00
24610;BME280;12758;47.890;11.694;2023-05-14T10:12:36;93602.19;;;11.31;100.00
24610;BME280;12758;47.890;11.694;2023-05-14T10:15:05;93598.78;;;11.34;100.00
24610;BME280;12758;47.890;11.694;2023-05-14T10:17:36;93599.47;;;11.31;100.00
24610;BME280;12758;47.890;11.694;2023-05-14T10:20:05;93600.56;;;11.30;100.00
24610;BME280;12758;47.890;11.694;2023-05-14T10:22:33;93604.09;;;11.30;100.00
24610;BME280;12758;47.890;11.694;2023-05-14T10:25:00;93608.03;;;11.33;100.00
24610;BME280;12758;47.890;11.694;2023-05-14T10:27:26;93603.44;;;11.33;100.00
24610;BME280;12758;47.890;11.694;2023-05-14T10:29:53;93608.03;;;11.33;100.00
24610;BME280;12758;47.890;11.694;2023-05-14T10:32:21;93600.13;;;11.28;100.00
24610;BME280;12758;47.890;11.694;2023-05-14T10:34:48;93600.91;;;11.28;100.00
24610;BME280;12758;47.890;11.694;2023-05-14T10:37:15;93593.97;;;11.06;100.00
24610;BME280;12758;47.890;11.694;2023-05-14T10:39:43;93584.81;;;11.23;100.00
24610;BME280;12758;47.890;11.694;2023-05-14T10:42:10;93583.84;;;11.28;100.00
24610;BME280;12758;47.890;11.694;2023-05-14T10:44:46;93586.75;;;11.23;100.00
24610;BME280;12758;47.890;11.694;2023-05-14T10:47:13;93580.19;;;11.11;100.00
24610;BME280;12758;47.890;11.694;2023-05-14T10:49:39;93586.09;;;11.26;100.00
24610;BME280;12758;47.890;11.694;2023-05-14T10:52:07;93580.88;;;11.08;100.00
24610;BME280;12758;47.890;11.694;2023-05-14T10:54:34;93577.78;;;10.85;100.00
24610;BME280;12758;47.890;11.694;2023-05-14T10:57:00;93575.19;;;10.89;100.00
24610;BME280;12758;47.890;11.694;2023-05-14T10:59:26;93573.97;;;11.11;100.00
24610;BME280;12758;47.890;11.694;2023-05-14T11:01:52;93567.19;;;11.29;100.00
24610;BME280;12758;47.890;11.694;2023-05-14T11:04:21;93566.41;;;11.41;100.00
24610;BME280;12758;47.890;11.694;2023-05-14T11:06:48;93558.25;;;11.41;100.00
24610;BME280;12758;47.890;11.694;2023-05-14T11:09:14;93564.56;;;11.45;100.00
24610;BME280;12758;47.890;11.694;2023-05-14T11:11:41;93561.63;;;11.62;100.00
24610;BME280;12758;47.890;11.694;2023-05-14T11:14:08;93556.97;;;11.63;100.00
24610;BME280;12758;47.890;11.694;2023-05-14T11:16:34;93556.19;;;11.62;100.00
24610;BME280;12758;47.890;11.694;2023-05-14T11:19:01;93557.56;;;11.32;100.00
24610;BME280;12758;47.890;11.694;2023-05-14T11:21:28;93551.56;;;11.51;100.00
24610;BME280;12758;47.890;11.694;2023-05-14T11:23:55;93547.38;;;11.53;100.00
24610;BME280;12758;47.890;11.694;2023-05-14T11:26:22;93556.31;;;11.66;100.00
24610;BME280;12758;47.890;11.694;2023-05-14T11:28:48;93556.28;;;11.91;100.00
24610;BME280;12758;47.890;11.694;2023-05-14T11:31:14;93549.72;;;11.55;100.00
24610;BME280;12758;47.890;11.694;2023-05-14T11:33:40;93548.03;;;11.50;100.00
24610;BME280;12758;47.890;11.694;2023-05-14T11:36:06;93550.53;;;11.55;100.00
24610;BME280;12758;47.890;11.694;2023-05-14T11:38:44;93544.41;;;11.58;100.00
24610;BME280;12758;47.890;11.694;2023-05-14T11:41:13;93542.50;;;11.47;100.00
24610;BME280;12758;47.890;11.694;2023-05-14T11:43:39;93541.88;;;11.78;100.00
24610;BME280;12758;47.890;11.694;2023-05-14T11:46:05;93539.31;;;11.45;100.00
24610;BME280;12758;47.890;11.694;2023-05-14T11:48:31;93544.50;;;11.62;100.00
24610;BME280;12758;47.890;11.694;2023-05-14T11:50:57;93528.75;;;11.68;100.00
24610;BME280;12758;47.890;11.694;2023-05-14T11:53:24;93526.22;;;11.99;100.00
24610;BME280;12758;47.890;11.694;2023-05-14T11:55:52;93521.66;;;12.03;100.00
24610;BME280;12758;47.890;11.694;2023-05-14T11:58:18;93515.53;;;12.06;100.00
24610;BME280;12758;47.890;11.694;2023-05-14T12:00:44;93507.75;;;12.05;100.00
24610;BME280;12758;47.890;11.694;2023-05-14T12:03:10;93507.78;;;12.21;100.00
24610;BME280;12758;47.890;11.694;2023-05-14T12:05:37;93498.53;;;12.09;100.00
24610;BME280;12758;47.890;11.694;2023-05-14T12:08:18;93504.06;;;12.13;100.00
24610;BME280;12758;47.890;11.694;2023-05-14T12:10:44;93500.06;;;12.23;100.00
24610;BME280;12758;47.890;11.694;2023-05-14T12:13:13;93500.59;;;12.28;100.00
24610;BME280;12758;47.890;11.694;2023-05-14T12:15:39;93493.56;;;12.55;100.00
24610;BME280;12758;47.890;11.694;2023-05-14T12:18:07;93489.88;;;12.64;100.00
24610;BME280;12758;47.890;11.694;2023-05-14T12:20:33;93482.16;;;12.66;100.00
24610;BME280;12758;47.890;11.694;2023-05-14T12:22:59;93483.25;;;12.33;100.00
24610;BME280;12758;47.890;11.694;2023-05-14T12:25:26;93477.22;;;12.40;100.00
24610;BME280;12758;47.890;11.694;2023-05-14T12:27:52;93474.00;;;12.81;100.00
24610;BME280;12758;47.890;11.694;2023-05-14T12:30:19;93477.22;;;12.55;100.00
24610;BME280;12758;47.890;11.694;2023-05-14T12:32:45;93476.53;;;12.58;100.00
24610;BME280;12758;47.890;11.694;2023-05-14T12:35:11;93473.66;;;12.23;100.00
24610;BME280;12758;47.890;11.694;2023-05-14T12:37:37;93473.72;;;12.11;100.00